• Join FlightAware (Why Join?)
  • Login
  • US Flag 
06:09PM EDT


 

Airport Tracker/Info


-or-


 

Live Flight TrackerFlight Track Log ✈ SWA4195 ✈ 12-Jul-2014 ✈ KPHX - KONT

Flight Track Log - Related Links

Times and Time Zones

All times are in EDT time to prevent confusion due to time zone crossing. See the SWA4195 flight status page for this flight to view local times or setup timezone preferences in your user account.

Time Position Orientation Groundspeed Altitude Reporting Facility
EDT Latitude Longitude Course Direction KTS MPH feet Rate Location/Type
02:04PM 33.4333 -111.9833 90° East 172 198 2,000  Level Phoenix TRACON
02:05PM 33.4333 -111.9333 90° East 185 213 3,200 2,580 Climbing Phoenix TRACON
02:06PM 33.4167 -111.8500 103° East 233 268 6,700 2,940 Climbing Phoenix TRACON
02:07PM 33.3592 -111.8803 204° Southwest 246 283 9,500 2,160 Climbing Albuquerque Center
02:08PM 33.3658 -111.9772 275° West 300 345 11,500 3,000 Climbing Albuquerque Center
02:09PM 33.3750 -112.1097 275° West 333 383 15,700 3,120 Climbing Albuquerque Center
02:10PM 33.3944 -112.2258 281° West 356 410 17,900 2,280 Climbing Albuquerque Center
02:11PM 33.4064 -112.3600 276° West 383 441 20,500 2,400 Climbing Albuquerque Center
02:12PM 33.4194 -112.4886 277° West 402 463 22,900 2,040 Climbing Albuquerque Center
02:13PM 33.4331 -112.6275 277° West 410 472 24,700 1,800 Climbing Albuquerque Center
02:14PM 33.4481 -112.7708 277° West 427 491 26,700 1,860 Climbing Albuquerque Center
02:15PM 33.4703 -112.9164 280° West 437 503 28,600 1,560 Climbing Albuquerque Center
02:16PM 33.5000 -113.0625 284° West 446 513 30,000 660 Climbing Albuquerque Center
02:17PM 33.5344 -113.2469 283° West 460 529 30,000  Level Albuquerque Center
02:18PM 33.5636 -113.4031 283° West 476 548 30,000  Level Albuquerque Center
02:19PM 33.5942 -113.5550 284° West 468 539 30,000  Level Albuquerque Center
02:20PM 33.6147 -113.7200 279° West 483 556 30,000  Level Albuquerque Center
02:21PM 33.6297 -113.8778 277° West 483 556 30,000  Level Albuquerque Center
02:22PM 33.6469 -114.0347 278° West 479 551 30,000  Level Albuquerque Center
02:23PM 33.6658 -114.2194 277° West 478 550 30,000  Level Albuquerque Center
02:24PM 33.6817 -114.3739 277° West 478 550 30,000  Level Los Angeles Center
02:25PM 33.6975 -114.5319 277° West 478 550 30,000  Level Los Angeles Center
02:26PM 33.7131 -114.6900 277° West 479 551 30,000  Level Los Angeles Center
02:27PM 33.7331 -114.8811 277° West 479 551 30,000  Level Los Angeles Center
02:28PM 33.7469 -115.0381 276° West 475 547 30,000  Level Los Angeles Center
02:29PM 33.7625 -115.1958 277° West 476 548 30,000  Level Los Angeles Center
02:31PM 33.7767 -115.3514 276° West 474 545 30,000  Level Los Angeles Center
02:32PM 33.7900 -115.5092 276° West 474 545 30,000  Level Los Angeles Center
02:33PM 33.8050 -115.6644 277° West 473 544 30,000  Level Los Angeles Center
02:34PM 33.8206 -115.8533 276° West 474 545 30,000 -480 Level Los Angeles Center
02:35PM 33.8344 -116.0092 276° West 473 544 29,100 -1,680 Descending Los Angeles Center
02:36PM 33.8439 -116.1617 274° West 464 534 26,500 -2,580 Descending Los Angeles Center
02:37PM 33.8550 -116.3092 275° West 448 516 23,800 -2,700 Descending Los Angeles Center
02:38PM 33.8636 -116.4547 274° West 443 510 21,000 -3,060 Descending Los Angeles Center
02:38PM 33.8667 -116.5833 272° West 370 426 18,500 -2,940 Descending Southern California TRACON
02:39PM 33.8833 -116.7167 279° West 388 447 16,000 -2,460 Descending Southern California TRACON
02:40PM 33.9000 -116.8500 279° West 393 452 13,600 -2,160 Descending Southern California TRACON
02:42PM 33.9333 -116.9833 287° West 368 423 11,500 -1,680 Descending Southern California TRACON
02:43PM 33.9667 -117.0833 292° West 325 374 10,300 -1,620 Descending Southern California TRACON
02:44PM 34.0000 -117.1667 296° West 300 345 8,500 -1,620 Descending Southern California TRACON
02:45PM 34.0167 -117.2667 281° West 293 337 7,100 -1,080 Descending Southern California TRACON
02:46PM 34.0500 -117.3500 296° West 242 278 6,400 -1,080 Descending Southern California TRACON
02:47PM 34.0500 -117.4167 270° West 191 220 5,000 -1,380 Descending Southern California TRACON
02:48PM 34.0500 -117.4667 270° West 156 180 3,700 -1,440 Descending Southern California TRACON
02:49PM 34.0500 -117.5167 270° West 142 163 2,100 -1,200 Descending Southern California TRACON
02:50PM 34.0500 -117.5667 270° West 139 160 1,300 -840 Descending Southern California TRACON
02:52PM 34.0500 -117.6000 277° West  Level FlightAware Approximate